createdAt,value
2022-11-02T00:01:51.581Z,69.10
2022-11-02T00:04:18.450Z,69.10
2022-11-02T00:06:45.289Z,69.00
2022-11-02T00:09:12.085Z,69.00
2022-11-02T00:11:38.932Z,69.00
2022-11-02T00:14:05.804Z,69.10
2022-11-02T00:16:33.455Z,69.20
2022-11-02T00:19:01.677Z,68.90
2022-11-02T00:21:28.758Z,68.70
2022-11-02T00:23:57.431Z,68.60
2022-11-02T00:26:25.363Z,68.50
2022-11-02T00:28:53.268Z,68.50
2022-11-02T00:31:20.139Z,68.30
2022-11-02T00:33:46.996Z,68.00
2022-11-02T00:36:14.050Z,68.00
2022-11-02T00:38:40.848Z,68.00
2022-11-02T00:41:07.773Z,67.90
2022-11-02T00:43:34.671Z,67.70
2022-11-02T00:46:01.572Z,67.80
2022-11-02T00:48:28.434Z,67.70
2022-11-02T00:50:55.569Z,67.80
2022-11-02T00:53:25.114Z,67.90
2022-11-02T00:55:54.039Z,68.10
2022-11-02T00:58:21.747Z,68.20
2022-11-02T01:00:50.335Z,68.00
2022-11-02T01:03:17.169Z,66.70
2022-11-02T01:05:44.102Z,66.00
2022-11-02T01:08:11.257Z,66.60
2022-11-02T01:10:39.021Z,66.80
2022-11-02T01:13:07.297Z,67.20
2022-11-02T01:15:36.177Z,67.30
2022-11-02T01:18:03.616Z,67.50
2022-11-02T01:20:30.688Z,67.80
2022-11-02T01:22:59.219Z,68.00
2022-11-02T01:25:26.078Z,67.50
2022-11-02T01:27:52.939Z,67.30
2022-11-02T01:30:19.795Z,67.10
2022-11-02T01:32:46.685Z,67.20
2022-11-02T01:35:13.497Z,67.70
2022-11-02T01:37:40.382Z,68.00
2022-11-02T01:40:09.303Z,68.20
2022-11-02T01:42:36.253Z,68.40
2022-11-02T01:45:03.668Z,68.50
2022-11-02T01:47:35.171Z,68.30
2022-11-02T01:50:16.795Z,68.80
2022-11-02T01:52:43.628Z,68.80
2022-11-02T01:55:21.111Z,68.60
2022-11-02T01:57:54.994Z,68.50
2022-11-02T02:00:22.228Z,68.40
2022-11-02T02:02:56.866Z,68.40
2022-11-02T02:05:25.970Z,68.20
2022-11-02T02:07:53.867Z,68.20
2022-11-02T02:10:20.792Z,68.00
2022-11-02T02:12:49.011Z,67.90
2022-11-02T02:15:24.048Z,67.80
2022-11-02T02:18:16.484Z,67.90
2022-11-02T02:21:15.484Z,68.00
2022-11-02T02:23:59.060Z,68.40
2022-11-02T02:26:39.251Z,68.90
2022-11-02T02:29:24.052Z,69.20
2022-11-02T02:32:22.422Z,69.50
2022-11-02T02:34:58.403Z,69.80
2022-11-02T02:37:39.789Z,70.00
2022-11-02T02:40:46.469Z,70.40
2022-11-02T02:43:17.533Z,70.40
2022-11-02T02:45:54.924Z,70.40
2022-11-02T02:48:24.735Z,70.30
2022-11-02T02:50:55.895Z,70.30
2022-11-02T02:53:32.512Z,70.10
2022-11-02T02:56:00.781Z,69.80
2022-11-02T02:58:35.755Z,69.70
2022-11-02T03:01:06.051Z,69.60
2022-11-02T03:03:35.802Z,69.60
2022-11-02T03:06:14.281Z,69.50
2022-11-02T03:08:52.510Z,69.40
2022-11-02T03:11:21.730Z,69.40
2022-11-02T03:14:07.612Z,69.30
2022-11-02T03:16:47.312Z,69.40
2022-11-02T03:19:31.240Z,69.60
2022-11-02T03:22:03.029Z,69.60
2022-11-02T03:24:48.180Z,69.50
2022-11-02T03:27:35.160Z,69.30
2022-11-02T03:30:17.293Z,69.20
2022-11-02T03:32:47.743Z,68.90
2022-11-02T03:35:43.271Z,68.60
2022-11-02T03:38:19.788Z,68.40
2022-11-02T03:40:50.230Z,68.30
2022-11-02T03:43:21.176Z,68.10
2022-11-02T03:45:54.848Z,68.00
2022-11-02T03:48:29.635Z,67.90
2022-11-02T03:51:00.500Z,67.70
2022-11-02T03:53:34.608Z,67.70
2022-11-02T03:56:10.635Z,67.70
2022-11-02T03:58:38.946Z,67.80
2022-11-02T04:01:10.249Z,67.80
2022-11-02T04:03:43.262Z,67.90
2022-11-02T04:06:10.280Z,67.70
2022-11-02T04:08:40.397Z,67.70
2022-11-02T04:11:28.576Z,67.70
2022-11-02T04:14:19.515Z,67.60
2022-11-02T04:16:46.420Z,67.70
2022-11-02T04:19:27.797Z,67.60
2022-11-02T04:22:17.125Z,67.50
2022-11-02T04:25:05.438Z,67.50
2022-11-02T04:27:34.002Z,67.30
2022-11-02T04:30:01.334Z,67.50
2022-11-02T04:32:49.599Z,67.50
2022-11-02T04:35:18.104Z,67.40
2022-11-02T04:38:04.970Z,67.40
2022-11-02T04:40:35.848Z,67.50
2022-11-02T04:43:04.521Z,67.70
2022-11-02T04:45:33.568Z,67.80
2022-11-02T04:48:09.017Z,67.70
2022-11-02T04:50:36.777Z,67.50
2022-11-02T04:53:07.181Z,67.50
2022-11-02T04:55:35.093Z,67.60
2022-11-02T04:58:02.276Z,67.70
2022-11-02T05:00:29.517Z,67.80
2022-11-02T05:02:56.498Z,67.90
2022-11-02T05:05:25.219Z,67.90
2022-11-02T05:07:55.153Z,67.80
2022-11-02T05:10:23.215Z,68.00
2022-11-02T05:12:58.050Z,67.90
2022-11-02T05:15:27.769Z,68.00
2022-11-02T05:17:54.839Z,68.30
2022-11-02T05:20:22.647Z,69.60
2022-11-02T05:22:49.736Z,69.50
2022-11-02T05:25:17.939Z,69.70
2022-11-02T05:27:44.774Z,69.70
2022-11-02T05:30:13.182Z,69.40
2022-11-02T05:32:41.223Z,69.40
2022-11-02T05:35:08.703Z,69.20
2022-11-02T05:37:35.841Z,69.10
2022-11-02T05:40:03.939Z,69.10
2022-11-02T05:42:30.937Z,69.00
2022-11-02T05:44:59.176Z,69.00
2022-11-02T05:47:26.001Z,69.10
2022-11-02T05:49:52.843Z,69.10
2022-11-02T05:52:19.677Z,69.20
2022-11-02T05:54:46.633Z,69.20
2022-11-02T05:57:13.776Z,69.10
2022-11-02T05:59:42.716Z,69.20
2022-11-02T06:02:12.041Z,69.10
2022-11-02T06:04:38.919Z,69.20
2022-11-02T06:07:05.780Z,69.10
2022-11-02T06:09:32.627Z,68.90
2022-11-02T06:11:59.480Z,68.80
2022-11-02T06:14:26.387Z,68.70
2022-11-02T06:16:53.237Z,68.50
2022-11-02T06:19:20.057Z,68.50
2022-11-02T06:21:48.496Z,68.30
2022-11-02T06:24:15.753Z,68.20
2022-11-02T06:26:42.989Z,68.10
2022-11-02T06:29:09.818Z,68.00
2022-11-02T06:31:36.597Z,67.90
2022-11-02T06:34:03.550Z,67.90
2022-11-02T06:36:30.364Z,67.60
2022-11-02T06:38:57.159Z,67.70
2022-11-02T06:41:23.957Z,67.60
2022-11-02T06:43:50.753Z,67.50
2022-11-02T06:46:17.840Z,67.40
2022-11-02T06:48:47.527Z,67.30
2022-11-02T06:51:14.720Z,67.20
2022-11-02T06:53:41.534Z,67.10
2022-11-02T06:56:09.853Z,67.00
2022-11-02T06:58:36.741Z,66.70
2022-11-02T07:01:07.239Z,66.50
2022-11-02T07:03:35.068Z,66.70
2022-11-02T07:06:02.500Z,66.50
2022-11-02T07:08:29.612Z,66.50
2022-11-02T07:10:57.046Z,66.50
2022-11-02T07:13:24.013Z,66.30
2022-11-02T07:15:55.175Z,66.50
2022-11-02T07:18:22.823Z,66.30
2022-11-02T07:20:50.049Z,66.40
2022-11-02T07:23:16.963Z,66.40
2022-11-02T07:25:43.804Z,66.10
2022-11-02T07:28:10.663Z,66.00
2022-11-02T07:30:37.536Z,66.10
2022-11-02T07:33:04.863Z,66.00
2022-11-02T07:35:34.100Z,65.80
2022-11-02T07:38:02.957Z,65.80
2022-11-02T07:40:31.291Z,65.60
2022-11-02T07:42:58.789Z,65.70
2022-11-02T07:45:51.560Z,65.80
2022-11-02T07:48:18.491Z,65.90
2022-11-02T07:50:45.479Z,65.80
2022-11-02T07:53:12.581Z,65.70
2022-11-02T07:55:39.761Z,65.80
2022-11-02T07:58:10.473Z,65.90
2022-11-02T08:00:39.336Z,65.80
2022-11-02T08:03:08.498Z,65.90
2022-11-02T08:05:38.149Z,65.90
2022-11-02T08:08:06.264Z,65.90
2022-11-02T08:10:37.290Z,66.00
2022-11-02T08:13:12.357Z,66.00
2022-11-02T08:15:39.285Z,65.40
2022-11-02T08:18:16.380Z,65.20
2022-11-02T08:20:43.851Z,65.10
2022-11-02T08:23:11.238Z,64.50
2022-11-02T08:25:39.228Z,64.60
2022-11-02T08:28:08.019Z,64.30
2022-11-02T08:30:35.368Z,64.10
2022-11-02T08:33:08.089Z,64.20
2022-11-02T08:35:37.506Z,64.50
2022-11-02T08:38:05.639Z,64.50
2022-11-02T08:40:33.812Z,64.30
2022-11-02T08:43:11.576Z,64.10
2022-11-02T08:46:13.258Z,63.90
2022-11-02T08:48:27.605Z,64.00
2022-11-02T08:50:55.724Z,64.10
2022-11-02T08:53:22.590Z,64.30
2022-11-02T08:55:49.471Z,63.70
2022-11-02T08:58:16.408Z,63.20
2022-11-02T09:00:43.305Z,62.70
2022-11-02T09:03:12.625Z,61.90
2022-11-02T09:05:44.605Z,61.30
2022-11-02T09:08:17.854Z,60.40
2022-11-02T09:10:46.787Z,60.20
2022-11-02T09:13:15.285Z,59.40
2022-11-02T09:15:42.366Z,59.30
2022-11-02T09:18:10.051Z,58.70
2022-11-02T09:20:37.222Z,58.00
2022-11-02T09:23:04.749Z,57.60
2022-11-02T09:25:31.615Z,56.80
2022-11-02T09:27:59.314Z,57.30
2022-11-02T09:30:27.319Z,55.80
2022-11-02T09:32:59.106Z,55.70
2022-11-02T09:35:27.595Z,55.50
2022-11-02T09:37:54.462Z,54.80
2022-11-02T09:40:24.012Z,54.50
2022-11-02T09:43:29.434Z,54.60
2022-11-02T09:46:05.391Z,54.00
2022-11-02T09:48:38.322Z,53.90
2022-11-02T09:51:15.362Z,53.90
2022-11-02T09:53:54.591Z,54.00
2022-11-02T09:56:21.530Z,54.10
2022-11-02T09:59:13.038Z,53.10
2022-11-02T10:01:55.624Z,53.30
2022-11-02T10:04:47.944Z,53.90
2022-11-02T10:07:43.957Z,53.00
2022-11-02T10:10:31.256Z,52.50
2022-11-02T10:13:10.432Z,53.20
2022-11-02T10:16:05.775Z,53.10
2022-11-02T10:18:35.596Z,54.40
2022-11-02T10:21:16.890Z,54.80
2022-11-02T10:23:54.046Z,54.20
2022-11-02T10:26:34.658Z,54.70
2022-11-02T10:29:14.129Z,55.40
2022-11-02T10:31:41.005Z,55.70
2022-11-02T10:34:28.762Z,57.00
2022-11-02T10:37:33.433Z,56.60
2022-11-02T10:40:06.040Z,57.00
2022-11-02T10:43:10.216Z,57.00
2022-11-02T10:46:03.159Z,57.90
2022-11-02T10:48:55.976Z,57.90
2022-11-02T10:51:24.790Z,57.90
2022-11-02T10:53:53.270Z,58.00
2022-11-02T10:56:21.571Z,57.70
2022-11-02T10:59:09.183Z,58.20
2022-11-02T11:01:36.594Z,58.60
2022-11-02T11:04:27.129Z,58.20
2022-11-02T11:06:56.601Z,58.50
2022-11-02T11:09:30.602Z,58.80
2022-11-02T11:12:03.549Z,58.50
2022-11-02T11:20:39.305Z,58.40
2022-11-02T11:23:11.986Z,58.40
2022-11-02T11:25:41.048Z,58.50
2022-11-02T11:28:28.363Z,58.50
2022-11-02T11:31:17.420Z,58.40
2022-11-02T11:33:46.264Z,58.60
2022-11-02T11:39:21.915Z,59.00
2022-11-02T11:41:48.857Z,58.10
2022-11-02T11:44:16.199Z,58.30
2022-11-02T11:46:49.249Z,57.70
2022-11-02T11:50:03.072Z,58.00
2022-11-02T11:52:31.456Z,57.60
2022-11-02T11:55:01.687Z,57.00
2022-11-02T11:57:31.737Z,57.20
2022-11-02T12:00:01.840Z,57.10
2022-11-02T12:02:43.891Z,56.60
2022-11-02T12:05:17.092Z,56.20
2022-11-02T12:08:26.000Z,56.60
2022-11-02T12:11:19.112Z,56.10
2022-11-02T12:13:55.344Z,56.80
2022-11-02T12:16:57.461Z,56.80
2022-11-02T12:19:43.101Z,55.20
2022-11-02T12:22:19.704Z,55.90
2022-11-02T12:24:55.560Z,56.50
2022-11-02T12:27:49.561Z,56.00
2022-11-02T12:30:20.613Z,55.50
2022-11-02T12:33:12.020Z,55.50
2022-11-02T12:35:50.892Z,55.20
2022-11-02T12:38:20.699Z,55.30
2022-11-02T12:40:53.625Z,55.30
2022-11-02T12:43:36.052Z,54.80
2022-11-02T12:46:27.557Z,54.20
2022-11-02T12:49:14.973Z,53.40
2022-11-02T12:51:49.247Z,56.00
2022-11-02T12:54:21.865Z,54.00
2022-11-02T12:56:49.741Z,55.50
2022-11-02T12:59:23.539Z,54.50
2022-11-02T13:01:54.954Z,54.90
2022-11-02T13:04:56.809Z,53.70
2022-11-02T13:07:32.185Z,54.50
2022-11-02T13:10:19.311Z,55.00
2022-11-02T13:12:50.587Z,54.90
2022-11-02T13:15:20.704Z,55.20
2022-11-02T13:17:54.711Z,55.40
2022-11-02T13:20:27.288Z,55.40
2022-11-02T13:23:28.893Z,54.20
2022-11-02T13:26:02.086Z,55.00
2022-11-02T13:28:43.332Z,54.30
2022-11-02T13:31:24.185Z,55.10
2022-11-02T13:33:54.713Z,54.90
2022-11-02T13:36:21.785Z,53.80
2022-11-02T13:39:23.633Z,54.00
2022-11-02T13:42:31.542Z,54.20
2022-11-02T13:45:01.389Z,54.80
2022-11-02T13:47:34.025Z,55.00
2022-11-02T13:50:04.473Z,55.60
2022-11-02T13:53:17.605Z,55.40
2022-11-02T13:56:07.155Z,55.30
2022-11-02T13:58:36.979Z,55.80
2022-11-02T14:01:09.531Z,55.50
2022-11-02T14:03:58.856Z,55.60
2022-11-02T14:06:30.622Z,56.20
2022-11-02T14:09:07.728Z,56.50
2022-11-02T14:11:42.069Z,56.30
2022-11-02T14:14:12.014Z,55.90
2022-11-02T14:16:51.224Z,57.00
2022-11-02T14:19:20.048Z,57.50
2022-11-02T14:21:59.735Z,57.10
2022-11-02T14:24:32.724Z,56.60
2022-11-02T14:27:25.589Z,56.90
2022-11-02T14:29:54.255Z,57.00
2022-11-02T14:32:21.090Z,57.20
2022-11-02T14:35:05.845Z,57.60
2022-11-02T14:37:41.574Z,57.80
2022-11-02T14:40:26.811Z,57.70
2022-11-02T14:43:27.108Z,57.60
2022-11-02T14:46:24.512Z,57.60
2022-11-02T14:48:54.411Z,58.30
2022-11-02T14:51:32.552Z,57.50
2022-11-02T14:54:07.061Z,57.50
2022-11-02T14:57:01.544Z,56.90
2022-11-02T14:59:38.709Z,57.20
2022-11-02T15:02:22.216Z,57.20
2022-11-02T15:04:55.205Z,57.50
2022-11-02T15:07:32.189Z,57.10
2022-11-02T15:10:05.213Z,57.50
2022-11-02T15:12:34.849Z,57.70
2022-11-02T15:15:01.642Z,57.90
2022-11-02T15:17:28.420Z,57.80
2022-11-02T15:19:58.202Z,58.00
2022-11-02T15:22:54.823Z,58.10
2022-11-02T15:25:31.094Z,58.30
2022-11-02T15:28:17.409Z,58.60
2022-11-02T15:30:49.140Z,58.70
2022-11-02T15:33:31.813Z,58.80
2022-11-02T15:36:00.973Z,59.10
2022-11-02T15:38:33.774Z,59.00
2022-11-02T15:41:40.662Z,59.20
2022-11-02T15:44:32.934Z,59.40
2022-11-02T15:47:07.538Z,59.70
2022-11-02T15:49:37.509Z,59.70
2022-11-02T15:52:14.812Z,59.70
2022-11-02T15:55:10.337Z,59.70
2022-11-02T15:57:57.828Z,59.90
2022-11-02T16:00:30.362Z,59.80
2022-11-02T16:03:05.659Z,59.70
2022-11-02T16:05:47.621Z,59.80
2022-11-02T16:08:35.151Z,59.70
2022-11-02T16:11:17.437Z,59.70
2022-11-02T16:14:03.521Z,59.60
2022-11-02T16:16:35.788Z,59.60
2022-11-02T16:19:02.979Z,59.60
2022-11-02T16:21:30.533Z,60.20
2022-11-02T16:23:59.358Z,60.10
2022-11-02T16:26:29.427Z,60.30
2022-11-02T16:28:59.486Z,60.40
2022-11-02T16:31:31.244Z,60.40
2022-11-02T16:33:59.109Z,60.20
2022-11-02T16:36:28.359Z,60.20
2022-11-02T16:39:07.401Z,60.30
2022-11-02T16:41:35.669Z,60.50
2022-11-02T16:44:36.192Z,60.50
2022-11-02T16:47:11.897Z,60.50
2022-11-02T16:49:51.029Z,60.50
2022-11-02T16:52:31.657Z,60.50
2022-11-02T16:54:59.295Z,60.50
2022-11-02T16:57:31.861Z,60.50
2022-11-02T17:00:09.532Z,60.60
2022-11-02T17:02:42.149Z,60.80
2022-11-02T17:05:21.977Z,60.70
2022-11-02T17:08:01.080Z,60.80
2022-11-02T17:10:29.336Z,60.80
2022-11-02T17:12:56.913Z,60.70
2022-11-02T17:15:29.463Z,60.60
2022-11-02T17:18:08.987Z,60.50
2022-11-02T17:20:38.388Z,60.30
2022-11-02T17:23:07.634Z,60.20
2022-11-02T17:25:39.893Z,60.00
2022-11-02T17:28:38.867Z,60.00
2022-11-02T17:31:21.822Z,59.80
2022-11-02T17:33:49.475Z,59.80
2022-11-02T17:36:17.124Z,59.70
2022-11-02T17:38:44.382Z,59.80
2022-11-02T17:41:36.412Z,59.70
2022-11-02T17:44:03.845Z,59.70
2022-11-02T17:46:31.013Z,59.50
2022-11-02T17:48:57.926Z,59.40
2022-11-02T17:51:25.844Z,59.40
2022-11-02T17:53:52.920Z,59.40
2022-11-02T17:56:19.754Z,59.30
2022-11-02T17:58:46.585Z,59.10
2022-11-02T18:01:14.218Z,59.20
2022-11-02T18:03:41.216Z,59.10
2022-11-02T18:06:08.209Z,59.00
2022-11-02T18:08:54.976Z,58.80
2022-11-02T18:11:26.088Z,58.80
2022-11-02T18:13:53.614Z,58.80
2022-11-02T18:16:20.471Z,59.00
2022-11-02T18:18:47.298Z,59.00
2022-11-02T18:21:14.182Z,59.00
2022-11-02T18:23:41.608Z,59.00
2022-11-02T18:26:13.734Z,59.00
2022-11-02T18:28:40.985Z,58.90
2022-11-02T18:31:09.047Z,59.00
2022-11-02T18:33:36.036Z,58.90
2022-11-02T18:36:07.834Z,59.00
2022-11-02T18:38:35.072Z,59.00
2022-11-02T18:41:27.830Z,59.00
2022-11-02T18:44:04.685Z,59.00
2022-11-02T18:46:33.161Z,59.20
2022-11-02T18:49:00.266Z,60.10
2022-11-02T18:51:27.380Z,59.10
2022-11-02T18:54:02.450Z,59.00
2022-11-02T18:56:29.589Z,59.00
2022-11-02T18:58:57.177Z,59.30
2022-11-02T19:01:25.264Z,59.30
2022-11-02T19:04:01.558Z,59.20
2022-11-02T19:06:49.251Z,59.30
2022-11-02T19:09:20.905Z,59.50
2022-11-02T19:12:00.378Z,59.50
2022-11-02T19:14:38.145Z,59.30
2022-11-02T19:17:06.567Z,59.40
2022-11-02T19:19:34.137Z,59.30
2022-11-02T19:22:01.420Z,59.20
2022-11-02T19:24:28.549Z,59.30
2022-11-02T19:26:55.461Z,59.60
2022-11-02T19:29:22.934Z,59.70
2022-11-02T19:31:49.958Z,59.50
2022-11-02T19:34:16.812Z,59.40
2022-11-02T19:36:43.774Z,59.60
2022-11-02T19:39:10.887Z,59.60
2022-11-02T19:41:39.136Z,59.60
2022-11-02T19:44:06.539Z,59.70
2022-11-02T19:46:33.919Z,59.80
2022-11-02T19:49:00.894Z,59.80
2022-11-02T19:51:30.202Z,59.80
2022-11-02T19:53:59.635Z,59.80
2022-11-02T19:56:29.005Z,59.70
2022-11-02T19:58:56.857Z,59.90
2022-11-02T20:01:26.289Z,60.00
2022-11-02T20:03:54.131Z,60.00
2022-11-02T20:06:32.765Z,60.00
2022-11-02T20:09:04.414Z,60.00
2022-11-02T20:11:31.646Z,59.90
2022-11-02T20:14:00.679Z,60.00
2022-11-02T20:16:28.028Z,60.00
2022-11-02T20:18:55.621Z,60.00
2022-11-02T20:21:31.026Z,60.00
2022-11-02T20:23:59.471Z,60.00
2022-11-02T20:26:35.019Z,60.00
2022-11-02T20:29:03.801Z,60.00
2022-11-02T20:31:33.065Z,59.90
2022-11-02T20:34:01.111Z,60.00
2022-11-02T20:36:28.617Z,60.00
2022-11-02T20:38:56.371Z,60.10
2022-11-02T20:41:26.638Z,60.00
2022-11-02T20:43:55.632Z,60.10
2022-11-02T20:46:42.258Z,60.10
2022-11-02T20:51:57.804Z,60.30
2022-11-02T20:54:25.316Z,60.30
2022-11-02T20:56:52.343Z,60.50
2022-11-02T20:59:19.232Z,60.50
2022-11-02T21:01:46.362Z,60.50
2022-11-02T21:04:19.812Z,60.60
2022-11-02T21:06:48.365Z,60.50
2022-11-02T21:09:15.344Z,60.60
2022-11-02T21:12:00.673Z,60.70
2022-11-02T21:14:27.556Z,60.80
2022-11-02T21:16:54.493Z,61.00
2022-11-02T21:19:21.395Z,61.00
2022-11-02T21:21:48.305Z,61.20
2022-11-02T21:24:15.118Z,61.20
2022-11-02T21:26:41.959Z,61.10
2022-11-02T21:29:09.419Z,61.20
2022-11-02T21:31:36.791Z,61.20
2022-11-02T21:34:03.661Z,61.20
2022-11-02T21:36:30.555Z,61.10
2022-11-02T21:38:58.778Z,61.10
2022-11-02T21:41:28.662Z,61.30
2022-11-02T21:43:56.225Z,61.30
2022-11-02T21:46:25.584Z,61.20
2022-11-02T21:48:52.962Z,61.20
2022-11-02T21:51:21.000Z,62.10
2022-11-02T21:53:49.713Z,61.20
2022-11-02T21:56:19.137Z,61.30
2022-11-02T21:58:47.466Z,61.20
2022-11-02T22:01:45.155Z,61.50
2022-11-02T22:04:24.836Z,61.40
2022-11-02T22:06:52.593Z,61.40
2022-11-02T22:09:19.559Z,61.40
2022-11-02T22:11:46.853Z,61.40
2022-11-02T22:14:14.187Z,61.50
2022-11-02T22:16:42.737Z,61.50
2022-11-02T22:19:12.123Z,61.50
2022-11-02T22:21:44.379Z,61.60
2022-11-02T22:24:12.078Z,61.60
2022-11-02T22:26:39.693Z,61.60
2022-11-02T22:29:07.837Z,61.80
2022-11-02T22:31:40.166Z,61.80
2022-11-02T22:34:08.481Z,61.80
2022-11-02T22:36:37.468Z,61.70
2022-11-02T22:39:06.469Z,61.90
2022-11-02T22:41:40.783Z,61.90
2022-11-02T22:44:13.147Z,61.90
2022-11-02T22:46:47.575Z,62.00
2022-11-02T22:49:16.456Z,62.10
2022-11-02T22:51:46.028Z,62.00
2022-11-02T22:54:15.686Z,63.00
2022-11-02T22:56:43.727Z,62.20
2022-11-02T22:59:10.897Z,62.20
2022-11-02T23:01:38.597Z,62.30
2022-11-02T23:04:06.591Z,62.20
2022-11-02T23:06:34.115Z,62.20
2022-11-02T23:09:01.425Z,62.30
2022-11-02T23:11:36.249Z,62.40
2022-11-02T23:14:14.269Z,62.40
2022-11-02T23:16:43.084Z,62.30
2022-11-02T23:19:31.184Z,62.20
2022-11-02T23:22:22.716Z,62.30
2022-11-02T23:25:14.180Z,62.30
2022-11-02T23:28:12.848Z,62.30
2022-11-02T23:30:59.476Z,62.40
2022-11-02T23:33:36.140Z,62.50
2022-11-02T23:36:15.292Z,62.40
2022-11-02T23:39:03.246Z,62.50
2022-11-02T23:41:31.705Z,62.50
2022-11-02T23:44:18.937Z,62.50
2022-11-02T23:46:48.577Z,62.60
2022-11-02T23:49:18.950Z,62.70
2022-11-02T23:52:04.266Z,62.80
2022-11-02T23:54:49.473Z,62.80
2022-11-02T23:57:16.441Z,62.80
2022-11-02T23:59:43.253Z,62.80
